Main page
METAR-TAF:

METAR-TAF

Airports :

Sligo Airport

Sligo, Ireland

latitude: 54-16-49N, longitude: 8-35-57W, elevation: 3 m

Current weather observation

The report was made 1 hour and 14 minutes ago, at 18:30 UTC
Wind 8 kt from the North
Temperature 13°C
Humidity 67%
Pressure 1026 hPa
Visibility 10 km or more
no clouds below 1500 m and no cumulonimbus

METAR: EISG 241830Z 36008KT CAVOK 13/07 Q1026

Time: 20:44 (19:44 UTC)

Forecast

The report was made 2 hours and 44 minutes ago, at 17:00 UTC
Forecast valid from 24 at 18 UTC to 25 at 03 UTC
Wind 12 kt from the North/Northwest
Visibility 10 km or more
Scattered clouds at a height of 2000 ft
Broken clouds at a height of 4000 ft
Becoming
from 24 at 21 UTC to 24 at 23 UTC
Wind 3 kt from variable directions

TAF: EISG 241700Z 2418/2503 34012KT 9999 SCT020 BKN040 BECMG 2421/2423 VRB03KT

Weather observations and forecasts of more than 4000 airports (METAR and TAF reports).

The available stations are represented by yellow and red dots on the map.

Hover mouse over dot to see the name of the station.

Then click to see weather observations and forecasts.

To change the map : click on the green buttons with a black cross to zoom in, on the green button with a dash to zoom out, or on the green arrows for adjacent maps.


METAR-TAF: